Aérodrome :
LOGIN :

S'inscrire | Disclaimer

   EN    FR    IT 

 










Légende :    VFR   VFR Marginal   IFR   IFR Intensif   IFR Très Intensif
Visi : 
Plafond : 
>= 8 km
>= 3000ft
5 à 8 km
1000 à 3000 ft
1500m à 5 km
500 à 1000 ft
800 à 1500m
200 à 500 ft
< 800m
< 200 ft
Symboles :   Orages  Brouillard  Fortes neiges  Fortes précipitations  Vent > 20 kt
SIGMETs :   Divers  Orages  Givrage  Turbulence  Onde Orograph.  Cendres Volcan.







- Altitude de l'aérodrome : 1989 ft
- Code IATA : KLV


LKKV - Karlovy Vary

DERNIER METAR :
  • 201500Z 27010KT 230V290 9999 SCT049 24/12 Q1013

METARs EXPIRÉS :
  • 201430Z 26007KT 210V290 9999 SCT048 24/13 Q1013
  • 201400Z 26009KT 210V290 9999 SCT048 24/12 Q1013
  • 201330Z 26010KT 210V290 9999 SCT047 24/13 Q1013
  • 201300Z 26007KT 180V300 CAVOK 24/13 Q1013
  • 201230Z 25007KT 180V290 9999 FEW040 23/13 Q1014

TAF TAF LKKV
Valide du 20 à 12h jusqu'au 21 à 18h UTC


201100Z 2012/2118 26009KT CAVOK
TEMPO 2012/2021 7000 SHRA SCT030TCU
PROB30
TEMPO 2012/2021 34012G30KT 4000 TSRA SCT026CB
PROB30
TEMPO 2110/2118 6000 TSRA SCT026CB
Pas de NOTAMs connus pour ce terrain.
1 SIGMET publié pour la FIR Praha (LKAA) :
 
Orages en lignes de grains
LKAA SIGMET 2 VALID 201445/201645 LKPW
LKAA PRAHA FIR SQL TS OBS APRX 60KM WID LINE BTN N5025 E01639 - N5015 E01624 - N4851 E01606 TOP FL400 MOV NE NC=



MET'MAP, la Météo Aéronautique d'un coup d'oeil ! - Copyright ORBIFLY Décembre 2007 - Disclaimer

ORBIFLY MET'MAP TEAM :

Programmation & Développement : Alexandra Zaïnal
Conception & Développement : Baudouin d'Aumeries
Co-Programmation & Développement : Marc-Olivier Méhu
Soutien technique & logistique : Manuel Goepfert

Contact : metmap@orbifly.com




SOURCES & CREDITS :

   NOAA